sensor_id;sensor_type;location;lat;lon;timestamp;pressure;altitude;pressure_sealevel;temperature;humidity
31911;BME280;18457;52.432;16.914;2022-08-19T00:01:42;99895.73;;;26.16;59.41
31911;BME280;18457;52.432;16.914;2022-08-19T00:04:25;99895.08;;;26.15;59.37
31911;BME280;18457;52.432;16.914;2022-08-19T00:06:58;99890.73;;;26.14;59.42
31911;BME280;18457;52.432;16.914;2022-08-19T00:09:30;99883.95;;;25.96;59.74
31911;BME280;18457;52.432;16.914;2022-08-19T00:12:02;99886.41;;;26.05;59.47
31911;BME280;18457;52.432;16.914;2022-08-19T00:14:34;99887.42;;;26.04;59.49
31911;BME280;18457;52.432;16.914;2022-08-19T00:17:07;99893.04;;;26.02;59.53
31911;BME280;18457;52.432;16.914;2022-08-19T00:19:39;99888.73;;;25.98;59.64
31911;BME280;18457;52.432;16.914;2022-08-19T00:22:11;99890.02;;;25.83;60.10
31911;BME280;18457;52.432;16.914;2022-08-19T00:24:43;99886.88;;;25.94;59.73
31911;BME280;18457;52.432;16.914;2022-08-19T00:27:20;99885.92;;;25.98;59.76
31911;BME280;18457;52.432;16.914;2022-08-19T00:29:57;99883.87;;;26.02;59.53
31911;BME280;18457;52.432;16.914;2022-08-19T00:32:30;99884.06;;;25.99;59.68
31911;BME280;18457;52.432;16.914;2022-08-19T00:35:04;99884.66;;;26.12;59.32
31911;BME280;18457;52.432;16.914;2022-08-19T00:37:36;99885.63;;;26.17;59.00
31911;BME280;18457;52.432;16.914;2022-08-19T00:40:07;99888.04;;;26.07;59.25
31911;BME280;18457;52.432;16.914;2022-08-19T00:42:39;99883.17;;;25.96;59.80
31911;BME280;18457;52.432;16.914;2022-08-19T00:45:16;99887.52;;;26.09;59.39
31911;BME280;18457;52.432;16.914;2022-08-19T00:47:48;99890.23;;;26.08;59.38
31911;BME280;18457;52.432;16.914;2022-08-19T00:50:21;99883.37;;;26.00;59.62
31911;BME280;18457;52.432;16.914;2022-08-19T00:52:53;99881.16;;;25.98;59.67
31911;BME280;18457;52.432;16.914;2022-08-19T00:55:27;99878.95;;;26.06;59.44
31911;BME280;18457;52.432;16.914;2022-08-19T00:58:03;99872.33;;;26.09;59.20
31911;BME280;18457;52.432;16.914;2022-08-19T01:00:36;99872.35;;;26.07;59.12
31911;BME280;18457;52.432;16.914;2022-08-19T01:03:10;99869.27;;;26.02;59.17
31911;BME280;18457;52.432;16.914;2022-08-19T01:05:44;99875.43;;;26.08;58.96
31911;BME280;18457;52.432;16.914;2022-08-19T01:08:17;99873.61;;;26.09;58.90
31911;BME280;18457;52.432;16.914;2022-08-19T01:10:52;99873.48;;;25.91;59.41
31911;BME280;18457;52.432;16.914;2022-08-19T01:13:27;99867.21;;;25.99;59.22
31911;BME280;18457;52.432;16.914;2022-08-19T01:16:22;99860.73;;;26.10;58.99
31911;BME280;18457;52.432;16.914;2022-08-19T01:18:56;99863.48;;;26.12;58.89
31911;BME280;18457;52.432;16.914;2022-08-19T01:21:32;99866.92;;;26.04;59.23
31911;BME280;18457;52.432;16.914;2022-08-19T01:24:06;99860.58;;;26.00;59.28
31911;BME280;18457;52.432;16.914;2022-08-19T01:26:42;99861.46;;;25.95;59.46
31911;BME280;18457;52.432;16.914;2022-08-19T01:29:16;99863.71;;;25.94;59.40
31911;BME280;18457;52.432;16.914;2022-08-19T01:31:49;99857.41;;;25.91;59.56
31911;BME280;18457;52.432;16.914;2022-08-19T01:34:23;99861.90;;;25.92;59.55
31911;BME280;18457;52.432;16.914;2022-08-19T01:36:55;99859.91;;;25.94;59.47
31911;BME280;18457;52.432;16.914;2022-08-19T01:39:27;99859.52;;;26.04;59.19
31911;BME280;18457;52.432;16.914;2022-08-19T01:42:00;99854.02;;;25.97;59.17
31911;BME280;18457;52.432;16.914;2022-08-19T01:44:33;99850.72;;;26.03;59.13
31911;BME280;18457;52.432;16.914;2022-08-19T01:47:07;99849.18;;;25.99;59.26
31911;BME280;18457;52.432;16.914;2022-08-19T01:49:40;99838.36;;;26.00;59.11
31911;BME280;18457;52.432;16.914;2022-08-19T01:52:12;99835.37;;;25.97;59.19
31911;BME280;18457;52.432;16.914;2022-08-19T01:54:43;99832.73;;;25.89;59.59
31911;BME280;18457;52.432;16.914;2022-08-19T01:57:15;99831.58;;;26.00;59.23
31911;BME280;18457;52.432;16.914;2022-08-19T01:59:47;99828.30;;;25.95;59.37
31911;BME280;18457;52.432;16.914;2022-08-19T02:02:20;99825.88;;;25.99;59.31
31911;BME280;18457;52.432;16.914;2022-08-19T02:04:52;99822.52;;;25.95;59.63
31911;BME280;18457;52.432;16.914;2022-08-19T02:07:24;99814.92;;;25.94;59.68
31911;BME280;18457;52.432;16.914;2022-08-19T02:09:56;99820.33;;;25.93;59.73
31911;BME280;18457;52.432;16.914;2022-08-19T02:12:32;99822.05;;;25.83;59.91
31911;BME280;18457;52.432;16.914;2022-08-19T02:15:08;99817.60;;;25.68;60.46
31911;BME280;18457;52.432;16.914;2022-08-19T02:17:41;99812.84;;;25.73;60.46
31911;BME280;18457;52.432;16.914;2022-08-19T02:20:14;99809.15;;;25.71;60.55
31911;BME280;18457;52.432;16.914;2022-08-19T02:22:46;99807.29;;;25.67;60.68
31911;BME280;18457;52.432;16.914;2022-08-19T02:25:17;99803.02;;;25.56;61.00
31911;BME280;18457;52.432;16.914;2022-08-19T02:27:49;99802.27;;;25.58;60.92
31911;BME280;18457;52.432;16.914;2022-08-19T02:30:22;99794.66;;;25.49;61.32
31911;BME280;18457;52.432;16.914;2022-08-19T02:32:54;99791.05;;;25.56;61.06
31911;BME280;18457;52.432;16.914;2022-08-19T02:35:26;99791.39;;;25.54;61.21
31911;BME280;18457;52.432;16.914;2022-08-19T02:37:58;99787.77;;;25.53;61.07
31911;BME280;18457;52.432;16.914;2022-08-19T02:40:52;99789.42;;;25.59;60.84
31911;BME280;18457;52.432;16.914;2022-08-19T02:43:25;99788.29;;;25.56;60.91
31911;BME280;18457;52.432;16.914;2022-08-19T02:45:58;99792.40;;;25.53;61.18
31911;BME280;18457;52.432;16.914;2022-08-19T02:48:30;99792.83;;;25.60;60.84
31911;BME280;18457;52.432;16.914;2022-08-19T02:51:03;99793.03;;;25.47;61.37
31911;BME280;18457;52.432;16.914;2022-08-19T02:53:35;99792.12;;;25.58;61.10
31911;BME280;18457;52.432;16.914;2022-08-19T02:56:09;99787.01;;;25.56;61.10
31911;BME280;18457;52.432;16.914;2022-08-19T02:58:41;99782.67;;;25.62;60.97
31911;BME280;18457;52.432;16.914;2022-08-19T03:01:21;99782.22;;;25.69;60.61
31911;BME280;18457;52.432;16.914;2022-08-19T03:03:54;99780.59;;;25.61;60.94
31911;BME280;18457;52.432;16.914;2022-08-19T03:06:26;99772.75;;;25.59;61.00
31911;BME280;18457;52.432;16.914;2022-08-19T03:08:58;99778.48;;;25.65;60.74
31911;BME280;18457;52.432;16.914;2022-08-19T03:11:31;99769.72;;;25.64;60.75
31911;BME280;18457;52.432;16.914;2022-08-19T03:14:05;99768.52;;;25.67;60.70
31911;BME280;18457;52.432;16.914;2022-08-19T03:16:51;99770.41;;;25.64;60.83
31911;BME280;18457;52.432;16.914;2022-08-19T03:19:23;99768.63;;;25.52;61.16
31911;BME280;18457;52.432;16.914;2022-08-19T03:21:55;99763.23;;;25.45;61.28
31911;BME280;18457;52.432;16.914;2022-08-19T03:24:27;99761.80;;;25.52;61.15
31911;BME280;18457;52.432;16.914;2022-08-19T03:26:59;99759.13;;;25.41;61.45
31911;BME280;18457;52.432;16.914;2022-08-19T03:29:31;99763.19;;;25.45;61.36
31911;BME280;18457;52.432;16.914;2022-08-19T03:32:12;99763.39;;;25.40;61.46
31911;BME280;18457;52.432;16.914;2022-08-19T03:35:02;99760.88;;;25.21;62.10
31911;BME280;18457;52.432;16.914;2022-08-19T03:37:34;99757.73;;;25.15;62.31
31911;BME280;18457;52.432;16.914;2022-08-19T03:40:08;99760.41;;;25.26;61.74
31911;BME280;18457;52.432;16.914;2022-08-19T03:42:46;99760.15;;;25.23;62.09
31911;BME280;18457;52.432;16.914;2022-08-19T03:45:19;99759.25;;;25.15;62.45
31911;BME280;18457;52.432;16.914;2022-08-19T03:47:50;99754.89;;;25.16;62.35
31911;BME280;18457;52.432;16.914;2022-08-19T03:50:23;99760.27;;;25.00;62.88
31911;BME280;18457;52.432;16.914;2022-08-19T03:52:54;99766.06;;;25.03;62.61
31911;BME280;18457;52.432;16.914;2022-08-19T03:55:26;99762.19;;;25.07;62.50
31911;BME280;18457;52.432;16.914;2022-08-19T03:57:57;99765.66;;;25.10;62.63
31911;BME280;18457;52.432;16.914;2022-08-19T04:00:29;99770.02;;;25.08;62.56
31911;BME280;18457;52.432;16.914;2022-08-19T04:03:01;99771.63;;;25.09;62.59
31911;BME280;18457;52.432;16.914;2022-08-19T04:05:33;99772.27;;;25.10;62.47
31911;BME280;18457;52.432;16.914;2022-08-19T04:08:05;99772.66;;;25.12;62.31
31911;BME280;18457;52.432;16.914;2022-08-19T04:10:43;99777.05;;;25.11;62.66
31911;BME280;18457;52.432;16.914;2022-08-19T04:13:14;99780.75;;;24.98;62.99
31911;BME280;18457;52.432;16.914;2022-08-19T04:15:46;99786.41;;;25.05;62.77
31911;BME280;18457;52.432;16.914;2022-08-19T04:18:18;99794.85;;;24.98;62.90
31911;BME280;18457;52.432;16.914;2022-08-19T04:20:51;99794.49;;;24.94;63.25
31911;BME280;18457;52.432;16.914;2022-08-19T04:23:22;99786.80;;;24.92;63.19
31911;BME280;18457;52.432;16.914;2022-08-19T04:25:55;99786.52;;;24.86;63.48
31911;BME280;18457;52.432;16.914;2022-08-19T04:28:25;99777.23;;;24.81;63.67
31911;BME280;18457;52.432;16.914;2022-08-19T04:30:57;99769.92;;;24.86;63.67
31911;BME280;18457;52.432;16.914;2022-08-19T04:33:29;99767.16;;;24.92;63.41
31911;BME280;18457;52.432;16.914;2022-08-19T04:36:01;99767.26;;;24.91;63.43
31911;BME280;18457;52.432;16.914;2022-08-19T04:38:33;99774.23;;;24.81;63.74
31911;BME280;18457;52.432;16.914;2022-08-19T04:41:05;99789.95;;;24.85;63.61
31911;BME280;18457;52.432;16.914;2022-08-19T04:43:55;99804.14;;;24.88;63.39
31911;BME280;18457;52.432;16.914;2022-08-19T04:46:34;99808.05;;;24.95;63.01
31911;BME280;18457;52.432;16.914;2022-08-19T04:49:22;99800.53;;;24.91;63.19
31911;BME280;18457;52.432;16.914;2022-08-19T04:51:55;99802.89;;;24.99;62.94
31911;BME280;18457;52.432;16.914;2022-08-19T04:54:25;99799.30;;;24.88;63.47
31911;BME280;18457;52.432;16.914;2022-08-19T04:57:09;99785.31;;;24.78;63.96
31911;BME280;18457;52.432;16.914;2022-08-19T04:59:41;99775.17;;;24.81;63.68
31911;BME280;18457;52.432;16.914;2022-08-19T05:02:12;99771.66;;;24.79;63.78
31911;BME280;18457;52.432;16.914;2022-08-19T05:04:44;99781.42;;;24.87;63.49
31911;BME280;18457;52.432;16.914;2022-08-19T05:07:16;99798.95;;;24.90;63.40
31911;BME280;18457;52.432;16.914;2022-08-19T05:09:48;99796.88;;;24.90;63.26
31911;BME280;18457;52.432;16.914;2022-08-19T05:12:28;99779.48;;;24.89;63.34
31911;BME280;18457;52.432;16.914;2022-08-19T05:14:59;99778.58;;;24.85;63.68
31911;BME280;18457;52.432;16.914;2022-08-19T05:17:31;99776.80;;;24.90;63.40
31911;BME280;18457;52.432;16.914;2022-08-19T05:20:10;99773.23;;;24.88;63.49
31911;BME280;18457;52.432;16.914;2022-08-19T05:23:08;99771.95;;;24.86;63.39
31911;BME280;18457;52.432;16.914;2022-08-19T05:25:52;99773.15;;;24.79;63.64
31911;BME280;18457;52.432;16.914;2022-08-19T05:28:24;99763.09;;;24.90;63.42
31911;BME280;18457;52.432;16.914;2022-08-19T05:30:55;99763.67;;;24.92;63.39
31911;BME280;18457;52.432;16.914;2022-08-19T05:33:27;99761.13;;;24.85;63.49
31911;BME280;18457;52.432;16.914;2022-08-19T05:35:59;99755.45;;;24.90;63.33
31911;BME280;18457;52.432;16.914;2022-08-19T05:38:32;99760.96;;;24.91;63.39
31911;BME280;18457;52.432;16.914;2022-08-19T05:41:09;99764.32;;;24.94;63.27
31911;BME280;18457;52.432;16.914;2022-08-19T05:43:41;99757.02;;;24.82;63.83
31911;BME280;18457;52.432;16.914;2022-08-19T05:46:18;99755.79;;;24.89;63.62
31911;BME280;18457;52.432;16.914;2022-08-19T05:48:57;99757.84;;;24.93;63.58
31911;BME280;18457;52.432;16.914;2022-08-19T05:51:29;99764.16;;;24.98;63.34
31911;BME280;18457;52.432;16.914;2022-08-19T05:54:01;99757.63;;;24.91;63.73
31911;BME280;18457;52.432;16.914;2022-08-19T05:56:34;99750.14;;;24.92;63.61
31911;BME280;18457;52.432;16.914;2022-08-19T05:59:09;99747.66;;;24.95;63.65
31911;BME280;18457;52.432;16.914;2022-08-19T06:01:44;99740.70;;;25.04;63.51
31911;BME280;18457;52.432;16.914;2022-08-19T06:04:16;99737.25;;;25.03;63.65
31911;BME280;18457;52.432;16.914;2022-08-19T06:06:50;99736.64;;;25.10;63.28
31911;BME280;18457;52.432;16.914;2022-08-19T06:09:23;99739.30;;;25.11;63.15
31911;BME280;18457;52.432;16.914;2022-08-19T06:11:58;99751.89;;;25.17;62.83
31911;BME280;18457;52.432;16.914;2022-08-19T06:14:32;99753.96;;;25.22;62.83
31911;BME280;18457;52.432;16.914;2022-08-19T06:17:09;99755.58;;;25.22;62.53
31911;BME280;18457;52.432;16.914;2022-08-19T06:19:41;99754.08;;;25.28;62.41
31911;BME280;18457;52.432;16.914;2022-08-19T06:22:14;99753.77;;;25.32;62.25
31911;BME280;18457;52.432;16.914;2022-08-19T06:24:46;99752.18;;;25.29;62.39
31911;BME280;18457;52.432;16.914;2022-08-19T06:27:18;99751.54;;;25.40;62.15
31911;BME280;18457;52.432;16.914;2022-08-19T06:29:50;99751.97;;;25.39;62.11
31911;BME280;18457;52.432;16.914;2022-08-19T06:32:21;99749.65;;;25.34;62.15
31911;BME280;18457;52.432;16.914;2022-08-19T06:34:53;99744.61;;;25.44;62.03
31911;BME280;18457;52.432;16.914;2022-08-19T06:37:25;99742.52;;;25.54;61.71
31911;BME280;18457;52.432;16.914;2022-08-19T06:39:57;99741.81;;;25.58;61.80
31911;BME280;18457;52.432;16.914;2022-08-19T06:42:29;99738.80;;;25.68;61.45
31911;BME280;18457;52.432;16.914;2022-08-19T06:45:02;99734.61;;;25.75;61.27
31911;BME280;18457;52.432;16.914;2022-08-19T06:47:39;99734.59;;;25.76;61.18
31911;BME280;18457;52.432;16.914;2022-08-19T06:50:12;99735.27;;;25.79;60.92
31911;BME280;18457;52.432;16.914;2022-08-19T06:52:44;99742.21;;;25.80;60.99
31911;BME280;18457;52.432;16.914;2022-08-19T06:55:18;99751.45;;;25.84;60.82
31911;BME280;18457;52.432;16.914;2022-08-19T06:57:49;99754.44;;;25.82;61.03
31911;BME280;18457;52.432;16.914;2022-08-19T07:00:24;99767.98;;;25.89;60.90
31911;BME280;18457;52.432;16.914;2022-08-19T07:02:56;99768.54;;;25.93;60.69
31911;BME280;18457;52.432;16.914;2022-08-19T07:05:39;99770.55;;;25.89;60.73
31911;BME280;18457;52.432;16.914;2022-08-19T07:08:15;99771.98;;;25.94;60.81
31911;BME280;18457;52.432;16.914;2022-08-19T07:10:46;99767.27;;;26.04;60.51
31911;BME280;18457;52.432;16.914;2022-08-19T07:13:19;99774.36;;;26.13;60.20
31911;BME280;18457;52.432;16.914;2022-08-19T07:15:52;99776.23;;;26.20;60.16
31911;BME280;18457;52.432;16.914;2022-08-19T07:18:24;99781.02;;;26.24;59.99
31911;BME280;18457;52.432;16.914;2022-08-19T07:21:03;99784.37;;;26.24;59.85
31911;BME280;18457;52.432;16.914;2022-08-19T07:23:39;99790.00;;;26.27;59.94
31911;BME280;18457;52.432;16.914;2022-08-19T07:26:13;99794.30;;;26.36;59.70
31911;BME280;18457;52.432;16.914;2022-08-19T07:28:46;99796.59;;;26.43;59.39
31911;BME280;18457;52.432;16.914;2022-08-19T07:31:24;99798.09;;;26.48;59.32
31911;BME280;18457;52.432;16.914;2022-08-19T07:34:00;99806.52;;;26.56;59.17
31911;BME280;18457;52.432;16.914;2022-08-19T07:36:33;99807.65;;;26.56;58.61
31911;BME280;18457;52.432;16.914;2022-08-19T07:39:08;99808.19;;;26.61;58.42
31911;BME280;18457;52.432;16.914;2022-08-19T07:41:41;99812.52;;;26.66;58.47
31911;BME280;18457;52.432;16.914;2022-08-19T07:44:14;99820.70;;;26.64;58.30
31911;BME280;18457;52.432;16.914;2022-08-19T07:46:48;99821.58;;;26.68;58.33
31911;BME280;18457;52.432;16.914;2022-08-19T07:49:24;99820.87;;;26.76;58.14
31911;BME280;18457;52.432;16.914;2022-08-19T07:51:57;99824.38;;;26.80;58.00
31911;BME280;18457;52.432;16.914;2022-08-19T07:54:33;99827.83;;;26.80;57.92
31911;BME280;18457;52.432;16.914;2022-08-19T07:57:06;99823.40;;;26.84;57.77
31911;BME280;18457;52.432;16.914;2022-08-19T07:59:39;99821.70;;;26.88;57.71
31911;BME280;18457;52.432;16.914;2022-08-19T08:02:11;99814.83;;;26.94;57.73
31911;BME280;18457;52.432;16.914;2022-08-19T08:04:42;99817.66;;;26.97;57.69
31911;BME280;18457;52.432;16.914;2022-08-19T08:07:32;99818.02;;;27.07;57.72
31911;BME280;18457;52.432;16.914;2022-08-19T08:10:21;99819.71;;;27.18;57.35
31911;BME280;18457;52.432;16.914;2022-08-19T08:12:54;99811.92;;;27.27;57.21
31911;BME280;18457;52.432;16.914;2022-08-19T08:15:40;99804.83;;;27.29;57.14
31911;BME280;18457;52.432;16.914;2022-08-19T08:18:15;99802.48;;;27.28;57.10
31911;BME280;18457;52.432;16.914;2022-08-19T08:20:47;99804.58;;;27.33;56.93
31911;BME280;18457;52.432;16.914;2022-08-19T08:23:17;99804.86;;;27.36;56.76
31911;BME280;18457;52.432;16.914;2022-08-19T08:25:58;99801.06;;;27.33;56.79
31911;BME280;18457;52.432;16.914;2022-08-19T08:28:32;99799.73;;;27.44;56.62
31911;BME280;18457;52.432;16.914;2022-08-19T08:31:04;99805.84;;;27.50;56.63
31911;BME280;18457;52.432;16.914;2022-08-19T08:33:39;99808.35;;;27.54;56.49
31911;BME280;18457;52.432;16.914;2022-08-19T08:36:13;99809.18;;;27.59;56.15
31911;BME280;18457;52.432;16.914;2022-08-19T08:38:46;99805.12;;;27.65;55.94
31911;BME280;18457;52.432;16.914;2022-08-19T08:41:26;99808.14;;;27.74;56.01
31911;BME280;18457;52.432;16.914;2022-08-19T08:43:59;99812.59;;;27.77;55.93
31911;BME280;18457;52.432;16.914;2022-08-19T08:46:39;99815.94;;;27.82;55.83
31911;BME280;18457;52.432;16.914;2022-08-19T08:49:26;99819.80;;;27.88;55.69
31911;BME280;18457;52.432;16.914;2022-08-19T08:52:03;99816.73;;;27.98;55.34
31911;BME280;18457;52.432;16.914;2022-08-19T08:54:38;99826.30;;;28.04;55.18
31911;BME280;18457;52.432;16.914;2022-08-19T08:57:32;99825.29;;;28.08;54.92
31911;BME280;18457;52.432;16.914;2022-08-19T09:00:15;99823.45;;;28.17;54.80
31911;BME280;18457;52.432;16.914;2022-08-19T09:02:49;99821.88;;;28.21;54.61
31911;BME280;18457;52.432;16.914;2022-08-19T09:05:19;99822.62;;;28.33;54.53
31911;BME280;18457;52.432;16.914;2022-08-19T09:08:00;99814.50;;;28.46;54.67
31911;BME280;18457;52.432;16.914;2022-08-19T09:10:38;99815.77;;;28.52;54.35
31911;BME280;18457;52.432;16.914;2022-08-19T09:13:20;99817.61;;;28.64;53.91
31911;BME280;18457;52.432;16.914;2022-08-19T09:15:56;99815.41;;;28.67;54.00
31911;BME280;18457;52.432;16.914;2022-08-19T09:18:40;99813.07;;;28.78;53.51
31911;BME280;18457;52.432;16.914;2022-08-19T09:21:13;99814.45;;;28.81;53.15
31911;BME280;18457;52.432;16.914;2022-08-19T09:23:45;99812.20;;;28.82;53.08
31911;BME280;18457;52.432;16.914;2022-08-19T09:26:22;99814.02;;;28.93;52.87
31911;BME280;18457;52.432;16.914;2022-08-19T09:29:14;99818.09;;;29.02;52.49
31911;BME280;18457;52.432;16.914;2022-08-19T09:31:47;99815.70;;;29.11;52.30
31911;BME280;18457;52.432;16.914;2022-08-19T09:34:20;99816.62;;;29.18;51.99
31911;BME280;18457;52.432;16.914;2022-08-19T09:36:52;99818.59;;;29.26;51.61
31911;BME280;18457;52.432;16.914;2022-08-19T09:39:25;99825.19;;;29.32;51.34
31911;BME280;18457;52.432;16.914;2022-08-19T09:42:06;99821.96;;;29.32;50.97
31911;BME280;18457;52.432;16.914;2022-08-19T09:45:00;99818.06;;;29.48;50.68
31911;BME280;18457;52.432;16.914;2022-08-19T09:47:34;99820.38;;;29.56;50.18
31911;BME280;18457;52.432;16.914;2022-08-19T09:50:12;99809.36;;;29.61;49.74
31911;BME280;18457;52.432;16.914;2022-08-19T09:52:46;99807.11;;;29.76;49.41
31911;BME280;18457;52.432;16.914;2022-08-19T09:55:27;99804.23;;;29.93;49.10
31911;BME280;18457;52.432;16.914;2022-08-19T09:58:03;99806.41;;;30.00;48.24
31911;BME280;18457;52.432;16.914;2022-08-19T10:00:34;99810.96;;;30.02;48.41
31911;BME280;18457;52.432;16.914;2022-08-19T10:03:08;99807.98;;;30.07;48.43
31911;BME280;18457;52.432;16.914;2022-08-19T10:05:42;99813.33;;;30.14;47.90
31911;BME280;18457;52.432;16.914;2022-08-19T10:08:27;99814.42;;;30.34;47.76
31911;BME280;18457;52.432;16.914;2022-08-19T10:10:59;99819.48;;;30.48;47.58
31911;BME280;18457;52.432;16.914;2022-08-19T10:13:50;99816.41;;;30.60;46.97
31911;BME280;18457;52.432;16.914;2022-08-19T10:16:24;99804.95;;;30.57;45.42
31911;BME280;18457;52.432;16.914;2022-08-19T10:19:00;99801.43;;;30.64;45.33
31911;BME280;18457;52.432;16.914;2022-08-19T10:21:35;99795.08;;;30.87;44.95
31911;BME280;18457;52.432;16.914;2022-08-19T10:24:09;99797.37;;;30.93;43.99
31911;BME280;18457;52.432;16.914;2022-08-19T10:26:40;99794.46;;;31.11;44.06
31911;BME280;18457;52.432;16.914;2022-08-19T10:29:16;99777.91;;;31.29;43.71
31911;BME280;18457;52.432;16.914;2022-08-19T10:32:05;99765.24;;;31.44;43.38
31911;BME280;18457;52.432;16.914;2022-08-19T10:34:39;99769.69;;;31.53;43.25
31911;BME280;18457;52.432;16.914;2022-08-19T10:37:18;99772.44;;;31.39;42.98
31911;BME280;18457;52.432;16.914;2022-08-19T10:39:58;99783.73;;;31.40;42.56
31911;BME280;18457;52.432;16.914;2022-08-19T10:42:30;99771.91;;;31.43;42.42
31911;BME280;18457;52.432;16.914;2022-08-19T10:45:02;99761.09;;;31.42;42.49
31911;BME280;18457;52.432;16.914;2022-08-19T10:47:36;99766.74;;;31.44;42.68
31911;BME280;18457;52.432;16.914;2022-08-19T10:50:08;99772.73;;;31.52;42.51
31911;BME280;18457;52.432;16.914;2022-08-19T10:53:04;99776.38;;;31.54;42.25
31911;BME280;18457;52.432;16.914;2022-08-19T10:55:39;99776.30;;;31.62;42.20
31911;BME280;18457;52.432;16.914;2022-08-19T10:58:29;99785.55;;;31.69;42.14
31911;BME280;18457;52.432;16.914;2022-08-19T11:01:01;99786.55;;;31.73;42.03
31911;BME280;18457;52.432;16.914;2022-08-19T11:03:32;99783.21;;;31.77;42.08
31911;BME280;18457;52.432;16.914;2022-08-19T11:06:07;99778.54;;;32.15;41.83
31911;BME280;18457;52.432;16.914;2022-08-19T11:08:39;99775.55;;;32.22;41.44
31911;BME280;18457;52.432;16.914;2022-08-19T11:11:14;99783.77;;;32.08;41.00
31911;BME280;18457;52.432;16.914;2022-08-19T11:13:46;99784.92;;;32.25;40.90
31911;BME280;18457;52.432;16.914;2022-08-19T11:16:20;99785.02;;;32.20;41.17
31911;BME280;18457;52.432;16.914;2022-08-19T11:18:56;99786.92;;;32.23;41.06
31911;BME280;18457;52.432;16.914;2022-08-19T11:21:31;99783.52;;;32.33;40.69
31911;BME280;18457;52.432;16.914;2022-08-19T11:24:06;99788.20;;;32.44;41.10
31911;BME280;18457;52.432;16.914;2022-08-19T11:26:40;99784.72;;;32.58;41.27
31911;BME280;18457;52.432;16.914;2022-08-19T11:29:13;99777.58;;;32.67;40.87
31911;BME280;18457;52.432;16.914;2022-08-19T11:31:47;99781.25;;;32.88;40.77
31911;BME280;18457;52.432;16.914;2022-08-19T11:34:22;99780.78;;;32.68;41.03
31911;BME280;18457;52.432;16.914;2022-08-19T11:36:55;99782.33;;;32.71;41.01
31911;BME280;18457;52.432;16.914;2022-08-19T11:39:30;99785.13;;;32.70;40.98
31911;BME280;18457;52.432;16.914;2022-08-19T11:42:02;99794.23;;;32.76;40.76
31911;BME280;18457;52.432;16.914;2022-08-19T11:44:53;99800.73;;;32.59;41.14
31911;BME280;18457;52.432;16.914;2022-08-19T11:47:25;99802.35;;;32.70;40.72
31911;BME280;18457;52.432;16.914;2022-08-19T11:49:57;99799.50;;;32.86;40.50
31911;BME280;18457;52.432;16.914;2022-08-19T11:52:30;99805.29;;;32.89;39.90
31911;BME280;18457;52.432;16.914;2022-08-19T11:55:00;99807.12;;;33.01;39.64
31911;BME280;18457;52.432;16.914;2022-08-19T11:57:32;99798.75;;;32.80;40.01
31911;BME280;18457;52.432;16.914;2022-08-19T12:00:06;99800.59;;;32.85;39.83
31911;BME280;18457;52.432;16.914;2022-08-19T12:02:39;99801.99;;;32.86;39.80
31911;BME280;18457;52.432;16.914;2022-08-19T12:05:11;99817.48;;;32.93;39.59
31911;BME280;18457;52.432;16.914;2022-08-19T12:07:43;99822.95;;;32.81;39.46
31911;BME280;18457;52.432;16.914;2022-08-19T12:10:16;99814.34;;;32.80;39.44
31911;BME280;18457;52.432;16.914;2022-08-19T12:12:51;99814.02;;;32.97;39.35
31911;BME280;18457;52.432;16.914;2022-08-19T12:15:28;99811.04;;;33.03;39.04
31911;BME280;18457;52.432;16.914;2022-08-19T12:18:07;99807.20;;;32.68;39.24
31911;BME280;18457;52.432;16.914;2022-08-19T12:20:41;99808.20;;;32.59;39.72
31911;BME280;18457;52.432;16.914;2022-08-19T12:23:13;99809.51;;;32.94;39.51
31911;BME280;18457;52.432;16.914;2022-08-19T12:25:48;99814.39;;;33.10;39.21
31911;BME280;18457;52.432;16.914;2022-08-19T12:28:24;99818.91;;;33.16;38.81
31911;BME280;18457;52.432;16.914;2022-08-19T12:30:57;99818.59;;;33.21;38.60
31911;BME280;18457;52.432;16.914;2022-08-19T12:33:29;99819.61;;;33.42;38.38
31911;BME280;18457;52.432;16.914;2022-08-19T12:36:05;99816.64;;;33.20;38.45
31911;BME280;18457;52.432;16.914;2022-08-19T12:38:38;99816.27;;;33.22;38.89
31911;BME280;18457;52.432;16.914;2022-08-19T12:41:13;99818.85;;;33.21;38.90
31911;BME280;18457;52.432;16.914;2022-08-19T12:43:45;99833.08;;;33.29;39.02
31911;BME280;18457;52.432;16.914;2022-08-19T12:46:20;99830.05;;;33.40;39.29
31911;BME280;18457;52.432;16.914;2022-08-19T12:48:55;99828.74;;;33.69;38.61
31911;BME280;18457;52.432;16.914;2022-08-19T12:51:28;99833.27;;;33.54;39.97
31911;BME280;18457;52.432;16.914;2022-08-19T12:54:00;99824.25;;;33.36;40.99
31911;BME280;18457;52.432;16.914;2022-08-19T12:56:32;99821.42;;;32.90;42.08
31911;BME280;18457;52.432;16.914;2022-08-19T12:59:04;99823.55;;;32.94;42.30
31911;BME280;18457;52.432;16.914;2022-08-19T13:01:38;99827.06;;;32.47;42.80
31911;BME280;18457;52.432;16.914;2022-08-19T13:04:11;99835.11;;;32.20;43.32
31911;BME280;18457;52.432;16.914;2022-08-19T13:06:43;99823.27;;;32.16;43.45
31911;BME280;18457;52.432;16.914;2022-08-19T13:09:15;99822.60;;;32.48;43.06
31911;BME280;18457;52.432;16.914;2022-08-19T13:11:47;99829.48;;;32.76;42.55
31911;BME280;18457;52.432;16.914;2022-08-19T13:14:18;99830.71;;;32.69;42.53
31911;BME280;18457;52.432;16.914;2022-08-19T13:16:50;99828.04;;;32.88;42.35
31911;BME280;18457;52.432;16.914;2022-08-19T13:19:22;99828.98;;;32.98;41.88
31911;BME280;18457;52.432;16.914;2022-08-19T13:21:55;99830.30;;;32.88;42.04
31911;BME280;18457;52.432;16.914;2022-08-19T13:24:30;99834.04;;;32.93;42.02
31911;BME280;18457;52.432;16.914;2022-08-19T13:27:04;99832.95;;;32.79;41.98
31911;BME280;18457;52.432;16.914;2022-08-19T13:29:37;99825.08;;;32.73;41.87